createdAt,value
2018-10-05T00:01:05.940Z,13.10
2018-10-05T00:03:34.396Z,13.10
2018-10-05T00:06:02.903Z,13.00
2018-10-05T00:08:31.415Z,12.90
2018-10-05T00:10:59.902Z,12.90
2018-10-05T00:13:28.362Z,12.80
2018-10-05T00:15:56.850Z,12.80
2018-10-05T00:18:25.389Z,12.80
2018-10-05T00:20:53.943Z,12.80
2018-10-05T00:23:22.451Z,12.80
2018-10-05T00:25:50.928Z,12.80
2018-10-05T00:28:19.371Z,12.80
2018-10-05T00:30:47.843Z,12.90
2018-10-05T00:33:16.317Z,12.80
2018-10-05T00:35:44.807Z,12.80
2018-10-05T00:38:13.232Z,12.80
2018-10-05T00:40:41.702Z,12.70
2018-10-05T00:43:10.161Z,12.70
2018-10-05T00:45:38.632Z,12.60
2018-10-05T00:48:07.081Z,12.70
2018-10-05T00:50:35.561Z,12.70
2018-10-05T00:53:04.042Z,12.60
2018-10-05T00:55:32.553Z,12.70
2018-10-05T00:58:01.013Z,12.70
2018-10-05T01:00:29.532Z,12.70
2018-10-05T01:02:58.034Z,12.70
2018-10-05T01:05:26.496Z,12.60
2018-10-05T01:07:54.931Z,12.50
2018-10-05T01:10:23.422Z,12.50
2018-10-05T01:12:52.649Z,12.50
2018-10-05T01:15:21.145Z,12.40
2018-10-05T01:17:49.696Z,12.50
2018-10-05T01:20:18.142Z,12.40
2018-10-05T01:22:46.684Z,12.40
2018-10-05T01:25:15.122Z,12.40
2018-10-05T01:27:43.594Z,12.40
2018-10-05T01:30:13.067Z,12.50
2018-10-05T01:32:43.406Z,12.50
2018-10-05T01:35:12.290Z,12.50
2018-10-05T01:37:40.977Z,12.50
2018-10-05T01:40:09.819Z,12.50
2018-10-05T01:42:38.324Z,12.50
2018-10-05T01:45:06.865Z,12.40
2018-10-05T01:47:35.362Z,12.30
2018-10-05T01:50:03.856Z,12.30
2018-10-05T01:52:32.310Z,12.30
2018-10-05T01:55:00.770Z,12.30
2018-10-05T01:57:29.256Z,12.30
2018-10-05T01:59:57.771Z,12.20
2018-10-05T02:02:26.244Z,12.20
2018-10-05T02:04:55.029Z,12.10
2018-10-05T02:07:23.584Z,12.20
2018-10-05T02:09:52.324Z,12.20
2018-10-05T02:12:20.808Z,12.20
2018-10-05T02:14:49.288Z,12.10
2018-10-05T02:17:17.789Z,12.10
2018-10-05T02:19:46.326Z,12.10
2018-10-05T02:22:14.862Z,12.10
2018-10-05T02:24:43.304Z,12.00
2018-10-05T02:27:11.764Z,12.00
2018-10-05T02:29:40.208Z,12.00
2018-10-05T02:32:08.682Z,12.00
2018-10-05T02:34:38.417Z,12.00
2018-10-05T02:37:07.180Z,12.00
2018-10-05T02:39:36.130Z,12.00
2018-10-05T02:42:04.849Z,12.00
2018-10-05T02:44:33.551Z,11.90
2018-10-05T02:47:02.199Z,11.90
2018-10-05T02:49:30.814Z,12.00
2018-10-05T02:51:59.611Z,11.90
2018-10-05T02:54:28.065Z,11.90
2018-10-05T02:56:57.376Z,11.90
2018-10-05T02:59:26.012Z,11.80
2018-10-05T03:02:05.892Z,11.80
2018-10-05T03:04:34.705Z,11.70
2018-10-05T03:07:03.432Z,11.70
2018-10-05T03:09:32.058Z,11.70
2018-10-05T03:12:00.681Z,11.70
2018-10-05T03:14:30.349Z,11.80
2018-10-05T03:16:58.862Z,11.80
2018-10-05T03:19:27.410Z,11.80
2018-10-05T03:21:56.274Z,11.80
2018-10-05T03:24:25.204Z,11.80
2018-10-05T03:26:53.781Z,11.80
2018-10-05T03:29:22.402Z,11.80
2018-10-05T03:31:51.114Z,11.80
2018-10-05T03:34:19.837Z,11.90
2018-10-05T03:36:48.728Z,11.80
2018-10-05T03:39:17.391Z,11.70
2018-10-05T03:41:46.054Z,11.70
2018-10-05T03:44:15.421Z,11.60
2018-10-05T03:46:44.001Z,11.70
2018-10-05T03:49:12.494Z,11.60
2018-10-05T03:51:40.965Z,11.60
2018-10-05T03:54:09.440Z,11.50
2018-10-05T03:56:37.844Z,11.50
2018-10-05T03:59:06.372Z,11.50
2018-10-05T04:01:34.832Z,11.40
2018-10-05T04:04:03.305Z,11.40
2018-10-05T04:06:31.753Z,11.40
2018-10-05T04:09:00.235Z,11.40
2018-10-05T04:11:28.680Z,11.40
2018-10-05T04:13:57.157Z,11.30
2018-10-05T04:16:25.612Z,11.40
2018-10-05T04:18:54.083Z,11.40
2018-10-05T04:21:22.544Z,11.30
2018-10-05T04:23:51.008Z,11.30
2018-10-05T04:26:19.486Z,11.20
2018-10-05T04:28:47.968Z,11.20
2018-10-05T04:31:16.749Z,11.30
2018-10-05T04:33:45.268Z,11.30
2018-10-05T04:36:13.698Z,11.30
2018-10-05T04:38:42.144Z,11.30
2018-10-05T04:41:10.689Z,11.30
2018-10-05T04:43:39.146Z,11.30
2018-10-05T04:46:07.733Z,11.30
2018-10-05T04:48:36.199Z,11.30
2018-10-05T04:51:04.660Z,11.30
2018-10-05T04:53:33.113Z,11.40
2018-10-05T04:56:01.521Z,11.40
2018-10-05T04:58:29.969Z,11.50
2018-10-05T05:00:58.408Z,11.50
2018-10-05T05:03:26.916Z,11.50
2018-10-05T05:05:55.350Z,11.50
2018-10-05T05:08:23.858Z,11.50
2018-10-05T05:10:52.284Z,11.50
2018-10-05T05:13:20.778Z,11.50
2018-10-05T05:15:49.264Z,11.50
2018-10-05T05:18:17.692Z,11.60
2018-10-05T05:20:46.184Z,11.50
2018-10-05T05:23:14.636Z,11.30
2018-10-05T05:25:43.101Z,11.30
2018-10-05T05:28:11.614Z,11.20
2018-10-05T05:30:40.060Z,11.20
2018-10-05T05:33:08.539Z,11.20
2018-10-05T05:35:36.990Z,11.20
2018-10-05T05:38:05.526Z,11.20
2018-10-05T05:40:33.986Z,11.20
2018-10-05T05:43:02.449Z,11.10
2018-10-05T05:45:30.989Z,11.20
2018-10-05T05:47:59.537Z,11.20
2018-10-05T05:50:28.033Z,11.20
2018-10-05T05:52:56.520Z,11.10
2018-10-05T05:55:25.085Z,11.20
2018-10-05T05:57:53.653Z,11.10
2018-10-05T06:00:22.230Z,11.10
2018-10-05T06:02:50.737Z,11.10
2018-10-05T06:05:19.229Z,11.10
2018-10-05T06:07:47.719Z,11.10
2018-10-05T06:10:16.193Z,11.10
2018-10-05T06:12:45.525Z,11.10
2018-10-05T06:15:14.040Z,11.10
2018-10-05T06:17:42.619Z,11.10
2018-10-05T06:20:11.220Z,11.10
2018-10-05T06:22:39.715Z,11.20
2018-10-05T06:25:08.206Z,11.20
2018-10-05T06:27:36.685Z,11.20
2018-10-05T06:30:06.185Z,11.20
2018-10-05T06:32:34.681Z,11.20
2018-10-05T06:35:03.172Z,11.20
2018-10-05T06:37:31.648Z,11.30
2018-10-05T06:40:00.563Z,11.40
2018-10-05T06:42:29.591Z,11.40
2018-10-05T06:44:58.576Z,11.40
2018-10-05T06:47:27.095Z,11.50
2018-10-05T06:49:55.613Z,11.50
2018-10-05T06:52:24.079Z,11.60
2018-10-05T06:54:52.529Z,11.60
2018-10-05T06:57:20.948Z,11.70
2018-10-05T06:59:49.525Z,11.70
2018-10-05T07:02:18.016Z,11.80
2018-10-05T07:04:46.487Z,11.80
2018-10-05T07:07:14.912Z,12.00
2018-10-05T07:09:43.374Z,12.10
2018-10-05T07:12:11.867Z,12.00
2018-10-05T07:14:40.456Z,12.10
2018-10-05T07:17:09.322Z,12.10
2018-10-05T07:19:37.792Z,12.30
2018-10-05T07:22:06.300Z,12.40
2018-10-05T07:24:34.824Z,12.40
2018-10-05T07:27:03.406Z,12.60
2018-10-05T07:29:31.871Z,12.80
2018-10-05T07:32:00.651Z,13.10
2018-10-05T07:34:29.293Z,13.20
2018-10-05T07:36:57.787Z,13.30
2018-10-05T07:39:26.382Z,13.50
2018-10-05T07:41:54.844Z,13.40
2018-10-05T07:44:23.324Z,13.50
2018-10-05T07:46:51.908Z,13.50
2018-10-05T07:49:20.387Z,13.80
2018-10-05T07:51:48.971Z,14.10
2018-10-05T07:54:17.405Z,14.40
2018-10-05T07:56:45.918Z,14.70
2018-10-05T07:59:14.420Z,14.80
2018-10-05T08:01:42.974Z,14.80
2018-10-05T08:04:11.501Z,15.00
2018-10-05T08:06:40.056Z,15.00
2018-10-05T08:09:08.622Z,15.10
2018-10-05T08:11:37.241Z,15.40
2018-10-05T08:14:05.757Z,16.00
2018-10-05T08:16:34.291Z,15.70
2018-10-05T08:19:02.777Z,16.00
2018-10-05T08:21:31.360Z,16.30
2018-10-05T08:23:59.908Z,16.40
2018-10-05T08:26:28.599Z,16.40
2018-10-05T08:28:57.089Z,16.80
2018-10-05T08:31:25.567Z,17.30
2018-10-05T08:33:54.108Z,17.90
2018-10-05T08:36:22.568Z,18.10
2018-10-05T08:38:51.140Z,18.20
2018-10-05T08:41:19.624Z,18.50
2018-10-05T08:43:48.106Z,18.80
2018-10-05T08:46:16.569Z,18.70
2018-10-05T08:48:45.037Z,19.50
2018-10-05T08:51:13.477Z,19.30
2018-10-05T08:53:41.927Z,19.30
2018-10-05T08:56:10.442Z,19.90
2018-10-05T08:58:38.968Z,20.30
2018-10-05T09:01:07.482Z,20.30
2018-10-05T09:03:35.941Z,20.00
2018-10-05T09:06:04.444Z,20.00
2018-10-05T09:08:32.913Z,19.70
2018-10-05T09:11:01.381Z,18.90
2018-10-05T09:13:29.881Z,19.00
2018-10-05T09:15:58.336Z,19.10
2018-10-05T09:18:26.813Z,19.50
2018-10-05T09:20:55.330Z,19.40
2018-10-05T09:23:23.801Z,19.50
2018-10-05T09:25:52.277Z,20.20
2018-10-05T09:28:20.761Z,20.60
2018-10-05T09:30:49.305Z,19.90
2018-10-05T09:33:17.738Z,19.80
2018-10-05T09:35:46.257Z,19.70
2018-10-05T09:38:14.768Z,19.20
2018-10-05T09:40:43.248Z,18.90
2018-10-05T09:43:11.724Z,19.20
2018-10-05T09:45:40.202Z,19.00
2018-10-05T09:48:08.702Z,18.70
2018-10-05T09:50:37.168Z,18.90
2018-10-05T09:53:05.671Z,19.00
2018-10-05T09:55:34.239Z,18.70
2018-10-05T09:58:02.794Z,19.10
2018-10-05T10:00:36.454Z,18.80
2018-10-05T10:03:10.381Z,19.20
2018-10-05T10:05:38.937Z,18.90
2018-10-05T10:08:07.612Z,19.10
2018-10-05T10:10:35.956Z,19.50
2018-10-05T10:13:04.500Z,19.50
2018-10-05T10:15:32.984Z,19.40
2018-10-05T10:18:01.506Z,19.10
2018-10-05T10:20:30.006Z,19.00
2018-10-05T10:22:58.519Z,18.90
2018-10-05T10:25:27.007Z,19.20
2018-10-05T10:27:55.461Z,19.30
2018-10-05T10:30:23.956Z,19.30
2018-10-05T10:32:52.526Z,19.40
2018-10-05T10:35:21.038Z,19.20
2018-10-05T10:37:49.596Z,19.30
2018-10-05T10:40:18.115Z,19.50
2018-10-05T10:42:46.679Z,19.60
2018-10-05T10:45:15.773Z,19.60
2018-10-05T10:47:44.279Z,19.50
2018-10-05T10:50:12.772Z,19.70
2018-10-05T10:52:41.259Z,19.60
2018-10-05T10:55:09.826Z,19.50
2018-10-05T10:57:38.999Z,19.60
2018-10-05T11:00:07.605Z,19.70
2018-10-05T11:02:36.159Z,19.80
2018-10-05T11:05:04.702Z,19.80
2018-10-05T11:07:33.176Z,20.00
2018-10-05T11:10:01.652Z,20.10
2018-10-05T11:12:30.258Z,20.30
2018-10-05T11:14:58.831Z,20.30
2018-10-05T11:17:27.345Z,20.40
2018-10-05T11:19:55.833Z,20.70
2018-10-05T11:22:24.366Z,20.70
2018-10-05T11:24:52.874Z,20.60
2018-10-05T11:27:22.055Z,20.60
2018-10-05T11:29:50.578Z,20.80
2018-10-05T11:32:19.029Z,21.10
2018-10-05T11:34:47.475Z,21.20
2018-10-05T11:37:15.939Z,21.50
2018-10-05T11:39:44.404Z,21.80
2018-10-05T11:42:12.956Z,21.90
2018-10-05T11:44:41.483Z,22.20
2018-10-05T11:47:09.986Z,22.20
2018-10-05T11:49:38.530Z,22.10
2018-10-05T11:52:07.131Z,22.20
2018-10-05T11:54:35.663Z,22.60
2018-10-05T11:57:04.233Z,22.90
2018-10-05T11:59:32.776Z,23.20
2018-10-05T12:02:01.247Z,22.90
2018-10-05T12:04:29.748Z,23.10
2018-10-05T12:06:58.254Z,23.50
2018-10-05T12:09:26.743Z,23.50
2018-10-05T12:11:55.222Z,23.40
2018-10-05T12:14:23.735Z,23.80
2018-10-05T12:16:52.215Z,24.00
2018-10-05T12:19:20.669Z,24.00
2018-10-05T12:21:49.197Z,24.10
2018-10-05T12:24:17.658Z,24.40
2018-10-05T12:26:46.171Z,24.00
2018-10-05T12:29:14.716Z,23.70
2018-10-05T12:31:43.253Z,24.40
2018-10-05T12:34:11.760Z,24.50
2018-10-05T12:36:40.281Z,24.70
2018-10-05T12:39:09.269Z,25.10
2018-10-05T12:41:38.202Z,25.40
2018-10-05T12:44:07.281Z,25.30
2018-10-05T12:46:36.033Z,24.90
2018-10-05T12:49:06.108Z,25.20
2018-10-05T12:51:34.676Z,25.00
2018-10-05T12:54:03.260Z,24.80
2018-10-05T12:56:31.942Z,24.70
2018-10-05T12:59:00.983Z,25.10
2018-10-05T13:01:29.503Z,25.00
2018-10-05T13:03:58.015Z,24.70
2018-10-05T13:06:26.496Z,24.40
2018-10-05T13:08:54.974Z,24.90
2018-10-05T13:11:23.671Z,25.00
2018-10-05T13:13:52.231Z,24.40
2018-10-05T13:16:20.737Z,24.40
2018-10-05T13:18:49.219Z,24.40
2018-10-05T13:21:17.683Z,24.90
2018-10-05T13:23:46.189Z,24.60
2018-10-05T13:26:15.102Z,24.80
2018-10-05T13:28:43.781Z,25.00
2018-10-05T13:31:12.292Z,24.50
2018-10-05T13:33:40.936Z,24.80
2018-10-05T13:36:09.436Z,25.00
2018-10-05T13:38:37.925Z,24.80
2018-10-05T13:41:06.797Z,24.70
2018-10-05T13:43:35.272Z,24.50
2018-10-05T13:46:03.772Z,24.60
2018-10-05T13:48:32.188Z,24.60
2018-10-05T13:51:00.636Z,24.40
2018-10-05T13:53:29.087Z,24.80
2018-10-05T13:55:57.558Z,24.50
2018-10-05T13:58:26.057Z,24.40
2018-10-05T14:00:54.639Z,24.70
2018-10-05T14:03:23.096Z,24.60
2018-10-05T14:05:51.611Z,24.70
2018-10-05T14:08:20.114Z,24.40
2018-10-05T14:10:48.616Z,24.40
2018-10-05T14:13:17.073Z,24.50
2018-10-05T14:15:45.542Z,24.80
2018-10-05T14:18:14.067Z,24.90
2018-10-05T14:20:42.647Z,24.30
2018-10-05T14:23:11.020Z,24.70
2018-10-05T14:25:39.582Z,24.20
2018-10-05T14:28:08.011Z,23.80
2018-10-05T14:30:36.553Z,23.90
2018-10-05T14:33:05.028Z,24.00
2018-10-05T14:35:33.513Z,24.40
2018-10-05T14:38:02.069Z,24.60
2018-10-05T14:40:30.479Z,25.30
2018-10-05T14:42:58.953Z,25.10
2018-10-05T14:45:27.401Z,24.90
2018-10-05T14:47:55.814Z,24.00
2018-10-05T14:50:24.308Z,23.90
2018-10-05T14:52:52.772Z,24.10
2018-10-05T14:55:21.279Z,23.80
2018-10-05T14:57:49.729Z,24.20
2018-10-05T15:00:18.209Z,23.70
2018-10-05T15:02:46.745Z,24.00
2018-10-05T15:05:15.301Z,24.50
2018-10-05T15:07:43.760Z,24.50
2018-10-05T15:10:12.290Z,24.50
2018-10-05T15:12:40.755Z,24.50
2018-10-05T15:15:09.260Z,24.40
2018-10-05T15:17:38.153Z,23.80
2018-10-05T15:20:06.626Z,24.10
2018-10-05T15:22:35.092Z,24.40
2018-10-05T15:25:03.546Z,24.00
2018-10-05T15:27:32.049Z,23.70
2018-10-05T15:30:00.540Z,23.50
2018-10-05T15:32:29.019Z,23.50
2018-10-05T15:34:57.481Z,23.30
2018-10-05T15:37:25.954Z,23.60
2018-10-05T15:39:54.447Z,23.60
2018-10-05T15:42:23.019Z,23.80
2018-10-05T15:44:51.507Z,23.50
2018-10-05T15:47:20.012Z,23.40
2018-10-05T15:49:48.528Z,23.30
2018-10-05T15:52:17.042Z,23.20
2018-10-05T15:54:45.514Z,23.20
2018-10-05T15:57:14.032Z,23.10
2018-10-05T15:59:42.520Z,23.20
2018-10-05T16:02:10.992Z,23.20
2018-10-05T16:04:40.443Z,22.90
2018-10-05T16:07:08.890Z,22.90
2018-10-05T16:09:37.360Z,22.80
2018-10-05T16:12:05.931Z,22.80
2018-10-05T16:14:34.378Z,22.60
2018-10-05T16:17:02.851Z,22.70
2018-10-05T16:19:31.312Z,22.60
2018-10-05T16:21:59.914Z,22.30
2018-10-05T16:24:35.702Z,22.30
2018-10-05T16:27:04.212Z,22.30
2018-10-05T16:29:32.659Z,22.20
2018-10-05T16:32:01.158Z,22.10
2018-10-05T16:34:29.649Z,22.00
2018-10-05T16:36:58.207Z,21.80
2018-10-05T16:39:26.672Z,21.70
2018-10-05T16:41:55.203Z,21.60
2018-10-05T16:44:23.763Z,21.50
2018-10-05T16:46:52.278Z,21.40
2018-10-05T16:49:20.739Z,21.30
2018-10-05T16:51:49.236Z,21.20
2018-10-05T16:54:17.779Z,21.10
2018-10-05T16:56:46.264Z,21.00
2018-10-05T16:59:14.723Z,21.00
2018-10-05T17:01:43.232Z,20.90
2018-10-05T17:04:11.735Z,20.80
2018-10-05T17:06:40.257Z,20.70
2018-10-05T17:09:10.005Z,20.60
2018-10-05T17:11:39.829Z,20.50
2018-10-05T17:14:08.556Z,20.50
2018-10-05T17:16:37.053Z,20.40
2018-10-05T17:19:06.001Z,20.20
2018-10-05T17:21:34.926Z,20.10
2018-10-05T17:24:03.431Z,19.90
2018-10-05T17:26:31.948Z,19.80
2018-10-05T17:29:00.392Z,19.80
2018-10-05T17:31:28.954Z,19.70
2018-10-05T17:33:57.486Z,19.60
2018-10-05T17:36:26.003Z,19.40
2018-10-05T17:38:54.465Z,19.30
2018-10-05T17:41:22.946Z,19.30
2018-10-05T17:43:51.407Z,19.30
2018-10-05T17:46:19.924Z,19.20
2018-10-05T17:48:48.486Z,19.20
2018-10-05T17:51:16.983Z,19.20
2018-10-05T17:53:45.608Z,19.10
2018-10-05T17:56:14.079Z,19.00
2018-10-05T17:58:43.531Z,18.90
2018-10-05T18:01:12.019Z,18.90
2018-10-05T18:03:40.516Z,18.90
2018-10-05T18:06:08.972Z,18.80
2018-10-05T18:08:37.446Z,18.70
2018-10-05T18:11:06.643Z,18.60
2018-10-05T18:13:35.113Z,18.60
2018-10-05T18:16:05.526Z,18.50
2018-10-05T18:18:34.000Z,18.50
2018-10-05T18:21:02.563Z,18.40
2018-10-05T18:23:31.061Z,18.30
2018-10-05T18:25:59.637Z,18.10
2018-10-05T18:28:28.113Z,18.00
2018-10-05T18:30:56.625Z,18.10
2018-10-05T18:33:25.135Z,18.10
2018-10-05T18:35:53.665Z,18.00
2018-10-05T18:38:22.169Z,17.90
2018-10-05T18:40:50.643Z,17.90
2018-10-05T18:43:20.104Z,17.90
2018-10-05T18:45:48.669Z,17.90
2018-10-05T18:48:17.732Z,17.90
2018-10-05T18:50:46.224Z,17.80
2018-10-05T18:53:14.734Z,17.60
2018-10-05T18:58:23.355Z,17.50
2018-10-05T19:00:51.859Z,17.50
2018-10-05T19:03:20.374Z,17.50
2018-10-05T19:05:48.796Z,17.50
2018-10-05T19:08:18.735Z,17.40
2018-10-05T19:10:47.921Z,17.20
2018-10-05T19:13:16.790Z,17.20
2018-10-05T19:15:45.318Z,17.10
2018-10-05T19:18:13.829Z,17.00
2018-10-05T19:20:42.309Z,17.00
2018-10-05T19:23:10.973Z,17.00
2018-10-05T19:25:40.366Z,16.90
2018-10-05T19:28:09.381Z,16.90
2018-10-05T19:30:37.853Z,16.90
2018-10-05T19:33:06.370Z,16.90
2018-10-05T19:35:35.625Z,16.80
2018-10-05T19:38:04.074Z,16.70
2018-10-05T19:40:33.704Z,16.70
2018-10-05T19:43:02.225Z,16.60
2018-10-05T19:45:30.707Z,16.50
2018-10-05T19:48:01.162Z,16.50
2018-10-05T19:50:31.118Z,16.50
2018-10-05T19:52:59.685Z,16.40
2018-10-05T19:55:28.140Z,16.30
2018-10-05T19:57:57.201Z,16.30
2018-10-05T20:00:25.658Z,16.30
2018-10-05T20:02:54.476Z,16.40
2018-10-05T20:05:23.597Z,16.30
2018-10-05T20:07:52.149Z,16.30
2018-10-05T20:10:20.670Z,16.20
2018-10-05T20:12:49.163Z,16.20
2018-10-05T20:15:17.697Z,16.20
2018-10-05T20:17:46.243Z,16.20
2018-10-05T20:20:14.698Z,16.10
2018-10-05T20:22:43.161Z,16.00
2018-10-05T20:25:11.620Z,16.00
2018-10-05T20:27:40.137Z,16.00
2018-10-05T20:30:09.179Z,16.00
2018-10-05T20:32:37.703Z,16.00
2018-10-05T20:35:06.197Z,16.00
2018-10-05T20:37:34.938Z,15.90
2018-10-05T20:40:03.203Z,15.90
2018-10-05T20:42:31.707Z,15.90
2018-10-05T20:45:01.182Z,15.80
2018-10-05T20:47:29.637Z,15.90
2018-10-05T20:49:58.485Z,15.90
2018-10-05T20:52:27.660Z,15.80
2018-10-05T20:54:56.172Z,15.70
2018-10-05T20:57:26.293Z,15.70
2018-10-05T20:59:54.906Z,15.70
2018-10-05T21:02:23.420Z,15.70
2018-10-05T21:04:52.522Z,15.70
2018-10-05T21:07:21.005Z,15.70
2018-10-05T21:09:52.096Z,15.60
2018-10-05T21:12:20.535Z,15.50
2018-10-05T21:14:49.000Z,15.50
2018-10-05T21:17:17.482Z,15.50
2018-10-05T21:19:46.023Z,15.50
2018-10-05T21:22:14.512Z,15.50
2018-10-05T21:24:43.087Z,15.30
2018-10-05T21:27:11.584Z,15.40
2018-10-05T21:29:40.085Z,15.30
2018-10-05T21:32:08.595Z,15.20
2018-10-05T21:34:37.109Z,15.10
2018-10-05T21:37:05.661Z,15.10
2018-10-05T21:39:34.230Z,14.90
2018-10-05T21:42:02.716Z,14.70
2018-10-05T21:44:32.022Z,14.60
2018-10-05T21:47:00.546Z,14.70
2018-10-05T21:49:29.852Z,14.70
2018-10-05T21:51:58.368Z,14.70
2018-10-05T21:54:26.906Z,14.70
2018-10-05T21:56:55.477Z,14.70
2018-10-05T21:59:23.941Z,14.70
2018-10-05T22:01:52.413Z,14.70
2018-10-05T22:04:21.171Z,14.70
2018-10-05T22:06:50.099Z,14.70
2018-10-05T22:09:18.566Z,14.60
2018-10-05T22:11:48.118Z,14.60
2018-10-05T22:14:16.642Z,14.60
2018-10-05T22:16:45.153Z,14.70
2018-10-05T22:19:13.925Z,14.70
2018-10-05T22:21:42.441Z,14.70
2018-10-05T22:24:10.887Z,14.70
2018-10-05T22:26:39.356Z,14.70
2018-10-05T22:29:07.914Z,14.60
2018-10-05T22:31:36.353Z,14.60
2018-10-05T22:34:04.883Z,14.60
2018-10-05T22:36:33.313Z,14.60
2018-10-05T22:39:02.061Z,14.70
2018-10-05T22:41:30.545Z,14.60
2018-10-05T22:43:59.030Z,14.60
2018-10-05T22:46:27.482Z,14.50
2018-10-05T22:48:55.938Z,14.50
2018-10-05T22:51:24.389Z,14.50
2018-10-05T22:53:52.847Z,14.50
2018-10-05T22:56:21.345Z,14.50
2018-10-05T22:58:49.876Z,14.50
2018-10-05T23:01:18.348Z,14.50
2018-10-05T23:03:46.790Z,14.50
2018-10-05T23:06:15.280Z,14.40
2018-10-05T23:08:43.704Z,14.40
2018-10-05T23:11:12.151Z,14.40
2018-10-05T23:13:40.627Z,14.40
2018-10-05T23:16:09.139Z,14.40
2018-10-05T23:18:37.564Z,14.40
2018-10-05T23:21:06.406Z,14.30
2018-10-05T23:23:34.848Z,14.30
2018-10-05T23:26:03.334Z,14.20
2018-10-05T23:28:31.789Z,14.00
2018-10-05T23:31:00.246Z,14.00
2018-10-05T23:33:28.688Z,14.10
2018-10-05T23:35:57.991Z,14.10
2018-10-05T23:38:26.465Z,14.20
2018-10-05T23:40:54.924Z,14.20
2018-10-05T23:43:23.366Z,14.20
2018-10-05T23:45:51.805Z,14.10
2018-10-05T23:48:20.272Z,14.10
2018-10-05T23:50:48.721Z,14.20
2018-10-05T23:53:17.161Z,14.20
2018-10-05T23:55:45.593Z,14.10
2018-10-05T23:58:14.017Z,14.10
